Mostovskoy, Russia
Current Conditions -  °F | °C
As of 4:30 AM on Friday 19 Dec 2014 (Local Time) from URMT Reporting Station
Broken Clouds Broken Clouds  
Wind Chill: 37°   Ceiling: 10000
Heat Index: 41°   Visibility: 6mi
Dew Point: 34°   Wind: 7mph
Humidity: 76%   Direction: 200°SSW
Pressure: 29.97"   Gusts: NA
Location:  44.41°N, 40.79°E
Report Text: URMT 190130Z 20003MPS 9999 FEW013 BKN100 05/01 Q1015 NOSIG RMKQFE723 SC060
Loading
Personal Weather Stations






























Interactive Weather Map New forecast layout! Learn more

10-Day Weather Forecast

Advertisements
Track Severe Weather on mobile